createdAt,value
2022-11-07T00:01:17.400Z,17.43
2022-11-07T00:03:44.056Z,15.87
2022-11-07T00:06:11.145Z,17.13
2022-11-07T00:08:37.766Z,15.13
2022-11-07T00:11:05.622Z,15.70
2022-11-07T00:13:32.981Z,15.97
2022-11-07T00:16:02.293Z,17.37
2022-11-07T00:18:29.101Z,17.60
2022-11-07T00:20:55.826Z,15.13
2022-11-07T00:23:22.420Z,19.27
2022-11-07T00:25:48.969Z,16.87
2022-11-07T00:28:15.519Z,15.70
2022-11-07T00:30:42.079Z,17.70
2022-11-07T00:33:08.650Z,16.17
2022-11-07T00:35:35.293Z,16.57
2022-11-07T00:38:01.819Z,16.20
2022-11-07T00:40:28.373Z,15.13
2022-11-07T00:42:54.888Z,16.73
2022-11-07T00:45:21.421Z,14.30
2022-11-07T00:47:47.976Z,13.93
2022-11-07T00:50:14.524Z,15.00
2022-11-07T00:52:41.062Z,16.33
2022-11-07T00:55:07.855Z,14.60
2022-11-07T00:57:34.460Z,15.07
2022-11-07T01:00:01.005Z,15.43
2022-11-07T01:02:28.010Z,13.10
2022-11-07T01:05:13.228Z,15.60
2022-11-07T01:07:40.014Z,16.37
2022-11-07T01:10:07.502Z,14.10
2022-11-07T01:12:35.510Z,14.47
2022-11-07T01:15:03.871Z,13.47
2022-11-07T01:17:30.567Z,13.57
2022-11-07T01:19:57.106Z,15.57
2022-11-07T01:22:23.657Z,15.37
2022-11-07T01:24:50.283Z,14.63
2022-11-07T01:27:16.820Z,13.53
2022-11-07T01:29:43.366Z,14.33
2022-11-07T01:32:09.919Z,13.50
2022-11-07T01:34:36.642Z,14.33
2022-11-07T01:37:03.196Z,14.50
2022-11-07T01:39:29.749Z,14.03
2022-11-07T01:41:56.442Z,13.93
2022-11-07T01:44:22.989Z,13.20
2022-11-07T01:46:50.399Z,13.17
2022-11-07T01:49:26.067Z,13.93
2022-11-07T01:52:08.229Z,12.97
2022-11-07T01:54:48.789Z,14.10
2022-11-07T01:57:23.840Z,14.37
2022-11-07T01:59:54.127Z,15.17
2022-11-07T02:02:22.854Z,14.17
2022-11-07T02:04:49.517Z,13.67
2022-11-07T02:07:20.531Z,13.10
2022-11-07T02:09:47.320Z,13.07
2022-11-07T02:12:14.972Z,15.70
2022-11-07T02:14:43.132Z,12.67
2022-11-07T02:17:14.079Z,15.27
2022-11-07T02:19:44.338Z,14.70
2022-11-07T02:22:35.386Z,16.73
2022-11-07T02:25:06.260Z,15.33
2022-11-07T02:27:33.908Z,12.37
2022-11-07T02:30:06.737Z,14.13
2022-11-07T02:32:33.375Z,12.90
2022-11-07T02:35:02.404Z,12.83
2022-11-07T02:37:35.718Z,14.90
2022-11-07T02:40:06.206Z,13.67
2022-11-07T02:42:45.877Z,13.57
2022-11-07T02:45:21.436Z,13.07
2022-11-07T02:47:47.990Z,13.20
2022-11-07T02:50:16.115Z,15.00
2022-11-07T02:52:43.349Z,13.03
2022-11-07T02:55:11.454Z,12.90
2022-11-07T02:57:38.426Z,11.60
2022-11-07T03:00:07.314Z,12.23
2022-11-07T03:02:34.032Z,12.00
2022-11-07T03:05:00.780Z,12.70
2022-11-07T03:07:27.733Z,12.47
2022-11-07T03:09:54.297Z,11.10
2022-11-07T03:12:20.842Z,10.97
2022-11-07T03:14:47.450Z,13.63
2022-11-07T03:17:14.194Z,12.23
2022-11-07T03:19:40.834Z,12.50
2022-11-07T03:22:07.361Z,12.20
2022-11-07T03:24:34.127Z,12.57
2022-11-07T03:27:00.655Z,12.43
2022-11-07T03:29:27.195Z,12.37
2022-11-07T03:31:53.727Z,12.13
2022-11-07T03:34:20.258Z,11.20
2022-11-07T03:36:46.794Z,10.50
2022-11-07T03:39:13.338Z,9.07
2022-11-07T03:41:39.898Z,9.17
2022-11-07T03:44:06.615Z,9.83
2022-11-07T03:46:33.547Z,9.93
2022-11-07T03:49:00.155Z,11.43
2022-11-07T03:51:26.729Z,12.60
2022-11-07T03:53:53.287Z,9.43
2022-11-07T03:56:19.844Z,8.30
2022-11-07T03:58:46.377Z,8.67
2022-11-07T04:01:13.419Z,9.50
2022-11-07T04:03:40.051Z,11.43
2022-11-07T04:06:06.852Z,9.50
2022-11-07T04:08:33.602Z,7.63
2022-11-07T04:11:00.155Z,9.07
2022-11-07T04:13:45.446Z,10.00
2022-11-07T04:16:31.351Z,9.20
2022-11-07T04:18:58.827Z,8.83
2022-11-07T04:21:25.394Z,7.80
2022-11-07T04:23:51.954Z,8.87
2022-11-07T04:26:37.338Z,8.63
2022-11-07T04:29:03.981Z,7.53
2022-11-07T04:31:30.692Z,8.43
2022-11-07T04:33:57.240Z,8.90
2022-11-07T04:36:23.774Z,8.93
2022-11-07T04:38:50.313Z,9.10
2022-11-07T04:41:22.704Z,7.97
2022-11-07T04:43:50.057Z,9.03
2022-11-07T04:46:16.994Z,9.07
2022-11-07T04:48:44.420Z,7.73
2022-11-07T04:51:20.992Z,7.73
2022-11-07T04:53:47.581Z,7.93
2022-11-07T04:56:14.151Z,8.83
2022-11-07T04:58:40.733Z,8.23
2022-11-07T05:01:07.298Z,11.73
2022-11-07T05:03:38.912Z,7.47
2022-11-07T05:06:12.177Z,8.73
2022-11-07T05:08:38.745Z,10.10
2022-11-07T05:11:05.526Z,7.63
2022-11-07T05:13:32.144Z,8.67
2022-11-07T05:15:58.710Z,7.80
2022-11-07T05:18:25.271Z,10.10
2022-11-07T05:20:51.902Z,9.23
2022-11-07T05:23:19.276Z,9.57
2022-11-07T05:25:52.351Z,8.27
2022-11-07T05:28:35.154Z,7.97
2022-11-07T05:31:05.996Z,8.50
2022-11-07T05:33:32.668Z,11.60
2022-11-07T05:36:11.032Z,8.13
2022-11-07T05:38:39.364Z,9.53
2022-11-07T05:41:05.932Z,7.30
2022-11-07T05:43:32.491Z,7.50
2022-11-07T05:46:00.030Z,8.23
2022-11-07T05:48:26.763Z,12.17
2022-11-07T05:50:53.365Z,13.23
2022-11-07T05:53:22.757Z,11.00
2022-11-07T05:55:49.393Z,6.90
2022-11-07T05:58:15.970Z,8.60
2022-11-07T06:00:42.577Z,7.20
2022-11-07T06:03:09.856Z,6.77
2022-11-07T06:05:40.461Z,8.47
2022-11-07T06:08:09.568Z,7.87
2022-11-07T06:10:40.914Z,7.07
2022-11-07T06:13:11.185Z,6.17
2022-11-07T06:15:38.479Z,7.23
2022-11-07T06:18:07.954Z,6.60
2022-11-07T06:20:35.162Z,6.83
2022-11-07T06:23:03.861Z,6.10
2022-11-07T06:25:30.757Z,7.67
2022-11-07T06:28:05.774Z,7.70
2022-11-07T06:30:33.068Z,7.70
2022-11-07T06:33:04.191Z,7.53
2022-11-07T06:35:30.926Z,8.37
2022-11-07T06:38:01.293Z,5.67
2022-11-07T06:40:27.855Z,6.60
2022-11-07T06:42:54.751Z,6.17
2022-11-07T06:45:22.132Z,6.77
2022-11-07T06:47:48.723Z,6.27
2022-11-07T06:50:15.312Z,5.13
2022-11-07T06:52:41.871Z,6.03
2022-11-07T06:55:08.787Z,5.77
2022-11-07T06:57:35.342Z,6.93
2022-11-07T07:00:02.676Z,7.87
2022-11-07T07:02:56.810Z,5.10
2022-11-07T07:05:20.793Z,4.97
2022-11-07T07:07:47.804Z,4.70
2022-11-07T07:10:14.802Z,6.70
2022-11-07T07:12:41.795Z,5.40
2022-11-07T07:15:08.789Z,6.40
2022-11-07T07:17:35.356Z,6.43
2022-11-07T07:20:02.001Z,4.43
2022-11-07T07:22:28.530Z,5.80
2022-11-07T07:24:55.226Z,6.67
2022-11-07T07:27:21.798Z,7.67
2022-11-07T07:29:48.834Z,7.23
2022-11-07T07:32:15.477Z,6.27
2022-11-07T07:34:42.037Z,5.30
2022-11-07T07:37:08.973Z,5.13
2022-11-07T07:39:35.546Z,5.50
2022-11-07T07:42:02.186Z,7.27
2022-11-07T07:48:09.528Z,6.00
2022-11-07T07:50:36.069Z,5.53
2022-11-07T07:53:07.732Z,4.83
2022-11-07T07:55:35.923Z,5.20
2022-11-07T07:58:02.459Z,6.33
2022-11-07T08:00:29.057Z,15.13
2022-11-07T08:03:04.047Z,9.10
2022-11-07T08:05:30.735Z,5.90
2022-11-07T08:07:57.377Z,19.07
2022-11-07T08:13:10.579Z,11.03
2022-11-07T08:15:37.239Z,12.57
2022-11-07T08:18:04.659Z,5.07
2022-11-07T08:20:31.823Z,6.37
2022-11-07T08:23:09.908Z,5.70
2022-11-07T08:25:41.380Z,4.40
2022-11-07T08:28:08.680Z,5.27
2022-11-07T08:30:35.794Z,7.70
2022-11-07T08:33:03.276Z,4.90
2022-11-07T08:35:30.699Z,5.73
2022-11-07T08:37:58.148Z,5.40
2022-11-07T08:40:24.921Z,4.43
2022-11-07T08:42:51.634Z,4.90
2022-11-07T08:45:18.358Z,7.73
2022-11-07T08:47:44.914Z,6.53
2022-11-07T08:50:11.522Z,5.27
2022-11-07T08:52:38.350Z,6.93
2022-11-07T08:55:05.410Z,4.13
2022-11-07T08:57:32.018Z,5.70
2022-11-07T08:59:58.580Z,4.30
2022-11-07T09:03:08.470Z,5.10
2022-11-07T09:05:11.701Z,4.23
2022-11-07T09:07:39.374Z,3.90
2022-11-07T09:10:06.394Z,4.00
2022-11-07T09:12:33.003Z,4.03
2022-11-07T09:14:59.609Z,5.80
2022-11-07T09:17:26.382Z,4.70
2022-11-07T09:19:52.965Z,5.70
2022-11-07T09:22:19.522Z,4.47
2022-11-07T09:24:46.073Z,4.47
2022-11-07T09:27:12.705Z,4.47
2022-11-07T09:29:40.285Z,3.70
2022-11-07T09:32:30.456Z,4.07
2022-11-07T09:34:57.225Z,3.73
2022-11-07T09:37:28.232Z,3.87
2022-11-07T09:39:54.866Z,5.20
2022-11-07T09:42:47.177Z,3.97
2022-11-07T09:45:13.989Z,3.07
2022-11-07T09:48:03.411Z,5.87
2022-11-07T09:50:37.905Z,3.63
2022-11-07T09:53:28.373Z,4.20
2022-11-07T09:55:59.269Z,5.10
2022-11-07T09:58:36.637Z,5.73
2022-11-07T10:01:06.616Z,5.43
2022-11-07T10:03:36.642Z,4.60
2022-11-07T10:06:12.005Z,3.63
2022-11-07T10:09:07.322Z,3.43
2022-11-07T10:11:38.982Z,4.87
2022-11-07T10:14:27.094Z,4.33
2022-11-07T10:17:18.219Z,3.20
2022-11-07T10:20:07.950Z,4.73
2022-11-07T10:22:52.081Z,2.93
2022-11-07T10:25:30.151Z,4.80
2022-11-07T10:28:12.355Z,4.37
2022-11-07T10:30:39.424Z,3.40
2022-11-07T10:33:21.093Z,4.53
2022-11-07T10:35:56.775Z,2.97
2022-11-07T10:38:27.548Z,6.47
2022-11-07T10:40:54.752Z,4.07
2022-11-07T10:43:39.294Z,3.40
2022-11-07T10:46:14.559Z,5.33
2022-11-07T10:49:01.359Z,5.47
2022-11-07T10:51:42.165Z,2.50
2022-11-07T10:54:27.320Z,4.50
2022-11-07T10:57:12.227Z,3.77
2022-11-07T11:00:08.022Z,4.13
2022-11-07T11:02:48.389Z,3.83
2022-11-07T11:05:25.058Z,4.63
2022-11-07T11:07:51.937Z,4.17
2022-11-07T11:10:27.258Z,5.27
2022-11-07T11:12:53.905Z,3.33
2022-11-07T11:15:23.837Z,3.00
2022-11-07T11:18:03.812Z,3.30
2022-11-07T11:20:40.827Z,4.23
2022-11-07T11:23:22.459Z,4.33
2022-11-07T11:25:51.445Z,5.00
2022-11-07T11:28:27.951Z,5.90
2022-11-07T11:31:02.578Z,3.30
2022-11-07T11:33:47.140Z,4.77
2022-11-07T11:36:21.150Z,7.93
2022-11-07T11:38:54.418Z,3.53
2022-11-07T11:41:47.470Z,3.87
2022-11-07T11:44:24.162Z,4.00
2022-11-07T11:47:16.330Z,6.47
2022-11-07T11:49:50.084Z,5.10
2022-11-07T11:52:24.101Z,4.10
2022-11-07T11:54:52.108Z,4.83
2022-11-07T11:57:37.434Z,3.80
2022-11-07T12:00:09.319Z,5.37
2022-11-07T12:02:52.011Z,7.87
2022-11-07T12:05:57.353Z,4.23
2022-11-07T12:09:02.736Z,7.63
2022-11-07T12:11:52.142Z,4.57
2022-11-07T12:14:46.758Z,2.60
2022-11-07T12:17:27.701Z,5.77
2022-11-07T12:20:13.947Z,2.70
2022-11-07T12:22:57.168Z,7.27
2022-11-07T12:25:35.787Z,4.67
2022-11-07T12:28:33.089Z,7.03
2022-11-07T12:31:19.976Z,3.53
2022-11-07T12:33:56.137Z,5.73
2022-11-07T12:36:52.763Z,5.07
2022-11-07T12:39:41.852Z,5.70
2022-11-07T12:42:20.988Z,4.97
2022-11-07T12:45:10.330Z,8.90
2022-11-07T12:47:45.307Z,7.13
2022-11-07T12:50:46.871Z,5.17
2022-11-07T12:53:46.885Z,5.23
2022-11-07T12:56:19.308Z,3.93
2022-11-07T12:58:47.206Z,5.23
2022-11-07T13:01:19.907Z,5.23
2022-11-07T13:03:59.883Z,5.37
2022-11-07T13:06:35.305Z,6.43
2022-11-07T13:09:17.751Z,4.67
2022-11-07T13:11:52.782Z,3.40
2022-11-07T13:14:42.655Z,4.17
2022-11-07T13:17:20.980Z,7.20
2022-11-07T13:20:03.594Z,6.20
2022-11-07T13:22:40.094Z,6.00
2022-11-07T13:25:17.068Z,5.20
2022-11-07T13:27:47.016Z,5.60
2022-11-07T13:30:13.552Z,3.90
2022-11-07T13:32:48.736Z,5.50
2022-11-07T13:35:24.941Z,6.83
2022-11-07T13:38:02.269Z,5.40
2022-11-07T13:40:35.593Z,6.73
2022-11-07T13:43:19.416Z,6.87
2022-11-07T13:45:48.565Z,7.87
2022-11-07T13:48:24.262Z,5.13
2022-11-07T13:51:01.039Z,7.70
2022-11-07T13:53:34.073Z,4.73
2022-11-07T13:56:09.426Z,5.07
2022-11-07T13:58:38.908Z,6.90
2022-11-07T14:01:10.831Z,5.93
2022-11-07T14:03:37.698Z,4.27
2022-11-07T14:06:05.366Z,7.83
2022-11-07T14:08:38.455Z,4.87
2022-11-07T14:11:17.986Z,6.00
2022-11-07T14:13:48.102Z,5.27
2022-11-07T14:16:21.298Z,7.17
2022-11-07T14:18:51.091Z,5.57
2022-11-07T14:21:32.301Z,6.07
2022-11-07T14:23:59.440Z,6.53
2022-11-07T14:26:32.757Z,6.03
2022-11-07T14:29:00.850Z,6.50
2022-11-07T14:31:33.609Z,6.37
2022-11-07T14:34:20.772Z,4.17
2022-11-07T14:36:56.618Z,7.43
2022-11-07T14:39:25.620Z,4.90
2022-11-07T14:41:54.320Z,5.53
2022-11-07T14:44:53.216Z,5.10
2022-11-07T14:47:23.617Z,3.53
2022-11-07T14:49:52.089Z,3.83
2022-11-07T14:52:39.571Z,5.13
2022-11-07T14:55:20.713Z,5.37
2022-11-07T14:57:48.126Z,4.17
2022-11-07T15:00:20.057Z,6.53
2022-11-07T15:02:49.366Z,3.73
2022-11-07T15:05:28.465Z,5.40
2022-11-07T15:07:58.432Z,5.47
2022-11-07T15:10:38.828Z,6.53
2022-11-07T15:13:22.415Z,5.53
2022-11-07T15:16:00.738Z,6.30
2022-11-07T15:18:29.130Z,7.83
2022-11-07T15:21:01.342Z,6.57
2022-11-07T15:23:33.741Z,7.10
2022-11-07T15:26:10.923Z,4.67
2022-11-07T15:28:51.882Z,5.67
2022-11-07T15:31:25.763Z,5.33
2022-11-07T15:33:53.629Z,3.80
2022-11-07T15:36:20.380Z,5.07
2022-11-07T15:38:48.303Z,3.87
2022-11-07T15:41:14.876Z,5.00
2022-11-07T15:43:41.504Z,5.63
2022-11-07T15:46:34.261Z,5.00
2022-11-07T15:49:02.491Z,4.53
2022-11-07T15:51:30.059Z,4.53
2022-11-07T15:53:56.702Z,4.50
2022-11-07T15:56:25.283Z,6.23
2022-11-07T15:58:53.449Z,6.70
2022-11-07T16:01:20.132Z,5.77
2022-11-07T16:03:46.742Z,5.83
2022-11-07T16:06:29.045Z,4.70
2022-11-07T16:08:55.688Z,8.50
2022-11-07T16:11:22.776Z,5.57
2022-11-07T16:13:50.968Z,6.20
2022-11-07T16:16:29.344Z,4.90
2022-11-07T16:18:55.945Z,4.13
2022-11-07T16:21:25.437Z,5.73
2022-11-07T16:23:52.574Z,5.47
2022-11-07T16:26:29.770Z,5.17
2022-11-07T16:28:56.391Z,7.43
2022-11-07T16:31:23.053Z,6.17
2022-11-07T16:33:49.750Z,5.70
2022-11-07T16:36:25.314Z,9.10
2022-11-07T16:38:52.633Z,6.70
2022-11-07T16:41:20.231Z,3.90
2022-11-07T16:43:47.928Z,5.53
2022-11-07T16:46:20.263Z,7.90
2022-11-07T16:48:48.841Z,6.60
2022-11-07T16:51:20.549Z,5.30
2022-11-07T16:53:47.267Z,6.30
2022-11-07T16:56:25.123Z,5.53
2022-11-07T16:58:52.833Z,6.70
2022-11-07T17:01:19.490Z,6.47
2022-11-07T17:03:46.260Z,4.53
2022-11-07T17:06:19.399Z,7.67
2022-11-07T17:08:46.845Z,5.93
2022-11-07T17:11:15.840Z,5.77
2022-11-07T17:13:42.960Z,5.73
2022-11-07T17:16:19.688Z,7.00
2022-11-07T17:18:47.418Z,6.23
2022-11-07T17:21:26.675Z,6.17
2022-11-07T17:23:54.843Z,9.63
2022-11-07T17:26:24.830Z,6.77
2022-11-07T17:28:52.563Z,7.70
2022-11-07T17:31:19.355Z,6.10
2022-11-07T17:33:46.113Z,5.30
2022-11-07T17:36:36.567Z,8.77
2022-11-07T17:39:11.927Z,7.50
2022-11-07T17:41:40.077Z,7.27
2022-11-07T17:44:07.172Z,9.23
2022-11-07T17:46:35.334Z,8.00
2022-11-07T17:49:07.090Z,4.97
2022-11-07T17:51:35.943Z,5.67
2022-11-07T17:54:03.101Z,5.43
2022-11-07T17:56:31.219Z,6.80
2022-11-07T17:59:04.130Z,5.37
2022-11-07T18:01:33.655Z,5.40
2022-11-07T18:04:01.037Z,6.00
2022-11-07T18:06:27.971Z,7.73
2022-11-07T18:08:57.831Z,6.70
2022-11-07T18:11:27.297Z,5.67
2022-11-07T18:13:55.485Z,9.90
2022-11-07T18:16:24.995Z,9.57
2022-11-07T18:18:51.659Z,9.10
2022-11-07T18:21:18.558Z,7.00
2022-11-07T18:23:45.925Z,4.03
2022-11-07T18:26:21.474Z,7.33
2022-11-07T18:28:49.383Z,7.47
2022-11-07T18:31:18.698Z,5.23
2022-11-07T18:33:45.337Z,9.87
2022-11-07T18:36:15.107Z,11.67
2022-11-07T18:38:41.709Z,7.43
2022-11-07T18:41:12.049Z,5.70
2022-11-07T18:43:39.200Z,7.57
2022-11-07T18:46:08.750Z,6.10
2022-11-07T18:48:38.518Z,5.30
2022-11-07T18:51:19.787Z,4.53
2022-11-07T18:53:46.407Z,6.77
2022-11-07T18:56:14.428Z,7.40
2022-11-07T18:58:42.410Z,4.53
2022-11-07T19:01:19.144Z,8.90
2022-11-07T19:03:46.897Z,5.87
2022-11-07T19:06:18.236Z,8.33
2022-11-07T19:08:49.490Z,5.73
2022-11-07T19:11:19.670Z,6.97
2022-11-07T19:13:47.435Z,10.33
2022-11-07T19:16:17.266Z,6.83
2022-11-07T19:18:49.386Z,5.20
2022-11-07T19:21:19.500Z,6.83
2022-11-07T19:23:47.766Z,6.73
2022-11-07T19:26:14.501Z,6.60
2022-11-07T19:28:41.642Z,7.67
2022-11-07T19:31:11.554Z,7.03
2022-11-07T19:33:39.086Z,7.50
2022-11-07T19:36:08.031Z,5.37
2022-11-07T19:38:34.644Z,9.77
2022-11-07T19:41:05.875Z,8.23
2022-11-07T19:43:33.282Z,6.87
2022-11-07T19:45:59.925Z,7.80
2022-11-07T19:48:26.624Z,5.37
2022-11-07T19:50:53.222Z,9.17
2022-11-07T19:53:21.457Z,6.93
2022-11-07T19:55:48.111Z,5.40
2022-11-07T19:58:15.745Z,6.37
2022-11-07T20:00:43.080Z,6.53
2022-11-07T20:03:09.952Z,6.57
2022-11-07T20:05:39.334Z,6.27
2022-11-07T20:08:06.408Z,5.13
2022-11-07T20:10:33.581Z,4.63
2022-11-07T20:13:00.171Z,5.77
2022-11-07T20:15:26.772Z,7.57
2022-11-07T20:17:53.317Z,7.67
2022-11-07T20:20:20.049Z,5.83
2022-11-07T20:22:50.253Z,5.80
2022-11-07T20:25:16.987Z,6.70
2022-11-07T20:27:43.562Z,7.83
2022-11-07T20:30:11.004Z,5.97
2022-11-07T20:32:39.174Z,7.70
2022-11-07T20:35:06.954Z,6.70
2022-11-07T20:37:33.494Z,5.63
2022-11-07T20:40:00.038Z,6.60
2022-11-07T20:42:26.580Z,4.70
2022-11-07T20:44:53.148Z,4.67
2022-11-07T20:47:19.674Z,8.63
2022-11-07T20:49:46.257Z,6.80
2022-11-07T20:52:12.910Z,10.70
2022-11-07T20:54:39.681Z,5.30
2022-11-07T20:57:06.465Z,7.67
2022-11-07T20:59:33.506Z,6.10
2022-11-07T21:02:03.649Z,5.23
2022-11-07T21:04:44.540Z,6.73
2022-11-07T21:07:25.723Z,5.03
2022-11-07T21:09:52.673Z,6.40
2022-11-07T21:12:19.256Z,7.63
2022-11-07T21:14:46.058Z,7.13
2022-11-07T21:17:12.654Z,7.37
2022-11-07T21:19:39.204Z,5.77
2022-11-07T21:22:06.281Z,6.27
2022-11-07T21:24:32.981Z,5.47
2022-11-07T21:26:59.638Z,6.77
2022-11-07T21:29:29.580Z,5.30
2022-11-07T21:31:57.243Z,7.17
2022-11-07T21:34:24.384Z,8.23
2022-11-07T21:36:50.980Z,3.50
2022-11-07T21:39:17.859Z,8.23
2022-11-07T21:41:44.462Z,7.00
2022-11-07T21:44:13.865Z,7.40
2022-11-07T21:46:40.429Z,6.00
2022-11-07T21:49:07.059Z,8.17
2022-11-07T21:51:34.846Z,8.23
2022-11-07T21:54:02.850Z,7.77
2022-11-07T21:56:32.019Z,6.27
2022-11-07T21:59:01.962Z,4.63
2022-11-07T22:01:29.824Z,4.93
2022-11-07T22:04:06.749Z,5.80
2022-11-07T22:06:37.348Z,7.10
2022-11-07T22:09:04.859Z,5.27
2022-11-07T22:11:31.448Z,6.13
2022-11-07T22:13:58.326Z,6.50
2022-11-07T22:16:25.098Z,11.00
2022-11-07T22:18:51.787Z,9.00
2022-11-07T22:21:21.200Z,9.00
2022-11-07T22:23:48.600Z,11.17
2022-11-07T22:26:20.671Z,6.17
2022-11-07T22:28:48.413Z,4.80
2022-11-07T22:31:22.356Z,5.03
2022-11-07T22:33:50.075Z,9.60
2022-11-07T22:36:16.971Z,5.83
2022-11-07T22:38:43.971Z,5.37
2022-11-07T22:41:14.746Z,5.20
2022-11-07T22:43:41.836Z,6.63
2022-11-07T22:46:11.761Z,6.97
2022-11-07T22:48:42.570Z,10.10
2022-11-07T22:51:13.057Z,6.07
2022-11-07T22:53:39.921Z,5.50
2022-11-07T22:56:25.874Z,8.50
2022-11-07T22:58:52.740Z,7.80
2022-11-07T23:01:25.404Z,9.77
2022-11-07T23:03:52.407Z,5.73
2022-11-07T23:06:19.586Z,8.03
2022-11-07T23:08:47.267Z,11.77
2022-11-07T23:14:10.128Z,5.83
2022-11-07T23:16:51.681Z,5.80
2022-11-07T23:19:20.718Z,5.60
2022-11-07T23:21:47.544Z,6.77
2022-11-07T23:24:14.274Z,4.97
2022-11-07T23:26:41.258Z,5.30
2022-11-07T23:29:14.586Z,6.37
2022-11-07T23:31:43.090Z,4.67
2022-11-07T23:34:09.809Z,4.13
2022-11-07T23:36:36.760Z,6.03
2022-11-07T23:39:07.626Z,6.77
2022-11-07T23:41:34.799Z,8.97
2022-11-07T23:44:01.652Z,6.37
2022-11-07T23:46:46.839Z,6.83
2022-11-07T23:49:32.397Z,5.63
2022-11-07T23:51:58.949Z,8.03
2022-11-07T23:54:44.102Z,7.63
2022-11-07T23:57:10.668Z,7.37
2022-11-07T23:59:55.837Z,6.50
